sensor_id;sensor_type;location;lat;lon;timestamp;pressure;altitude;pressure_sealevel;temperature
69545;BMP180;56766;52.260;20.746;2022-10-31T00:01:31;100800.60;;;7.90
69545;BMP180;56766;52.260;20.746;2022-10-31T00:03:59;100796.40;;;7.90
69545;BMP180;56766;52.260;20.746;2022-10-31T00:06:26;100797.80;;;7.90
69545;BMP180;56766;52.260;20.746;2022-10-31T00:09:00;100800.60;;;7.90
69545;BMP180;56766;52.260;20.746;2022-10-31T00:11:30;100804.20;;;7.80
69545;BMP180;56766;52.260;20.746;2022-10-31T00:13:58;100805.40;;;7.76
69545;BMP180;56766;52.260;20.746;2022-10-31T00:16:27;100800.60;;;7.70
69545;BMP180;56766;52.260;20.746;2022-10-31T00:19:01;100804.20;;;7.66
69545;BMP180;56766;52.260;20.746;2022-10-31T00:21:30;100800.40;;;7.62
69545;BMP180;56766;52.260;20.746;2022-10-31T00:23:59;100805.80;;;7.70
69545;BMP180;56766;52.260;20.746;2022-10-31T00:26:29;100800.80;;;7.70
69545;BMP180;56766;52.260;20.746;2022-10-31T00:28:58;100800.00;;;7.70
69545;BMP180;56766;52.260;20.746;2022-10-31T00:31:25;100801.80;;;7.70
69545;BMP180;56766;52.260;20.746;2022-10-31T00:33:51;100799.60;;;7.70
69545;BMP180;56766;52.260;20.746;2022-10-31T00:36:19;100802.20;;;7.80
69545;BMP180;56766;52.260;20.746;2022-10-31T00:38:48;100803.60;;;7.80
69545;BMP180;56766;52.260;20.746;2022-10-31T00:41:17;100800.00;;;7.80
69545;BMP180;56766;52.260;20.746;2022-10-31T00:43:45;100800.00;;;7.80
69545;BMP180;56766;52.260;20.746;2022-10-31T00:46:13;100807.20;;;7.80
69545;BMP180;56766;52.260;20.746;2022-10-31T00:48:40;100808.00;;;7.80
69545;BMP180;56766;52.260;20.746;2022-10-31T00:51:08;100807.20;;;7.80
69545;BMP180;56766;52.260;20.746;2022-10-31T00:53:35;100804.00;;;7.70
69545;BMP180;56766;52.260;20.746;2022-10-31T00:56:03;100801.20;;;7.70
69545;BMP180;56766;52.260;20.746;2022-10-31T00:58:29;100803.60;;;7.60
69545;BMP180;56766;52.260;20.746;2022-10-31T01:00:56;100799.00;;;7.60
69545;BMP180;56766;52.260;20.746;2022-10-31T01:03:30;100797.40;;;7.60
69545;BMP180;56766;52.260;20.746;2022-10-31T01:06:04;100799.60;;;7.50
69545;BMP180;56766;52.260;20.746;2022-10-31T01:08:31;100802.20;;;7.50
69545;BMP180;56766;52.260;20.746;2022-10-31T01:13:32;100799.00;;;7.30
69545;BMP180;56766;52.260;20.746;2022-10-31T01:16:01;100803.20;;;7.30
69545;BMP180;56766;52.260;20.746;2022-10-31T01:18:29;100808.00;;;7.20
69545;BMP180;56766;52.260;20.746;2022-10-31T01:21:13;100807.80;;;7.20
69545;BMP180;56766;52.260;20.746;2022-10-31T01:23:41;100807.60;;;7.12
69545;BMP180;56766;52.260;20.746;2022-10-31T01:26:18;100806.40;;;7.20
69545;BMP180;56766;52.260;20.746;2022-10-31T01:28:54;100803.20;;;7.14
69545;BMP180;56766;52.260;20.746;2022-10-31T01:31:26;100803.00;;;7.10
69545;BMP180;56766;52.260;20.746;2022-10-31T01:33:54;100802.20;;;7.00
69545;BMP180;56766;52.260;20.746;2022-10-31T01:38:59;100806.80;;;6.90
69545;BMP180;56766;52.260;20.746;2022-10-31T01:41:31;100801.20;;;6.90
69545;BMP180;56766;52.260;20.746;2022-10-31T01:47:05;100806.00;;;6.90
69545;BMP180;56766;52.260;20.746;2022-10-31T01:49:43;100810.60;;;6.90
69545;BMP180;56766;52.260;20.746;2022-10-31T01:52:25;100811.40;;;6.84
69545;BMP180;56766;52.260;20.746;2022-10-31T01:57:39;100805.20;;;6.90
69545;BMP180;56766;52.260;20.746;2022-10-31T02:00:10;100798.40;;;6.90
69545;BMP180;56766;52.260;20.746;2022-10-31T02:02:37;100800.20;;;6.96
69545;BMP180;56766;52.260;20.746;2022-10-31T02:05:10;100801.00;;;7.00
69545;BMP180;56766;52.260;20.746;2022-10-31T02:10:24;100796.60;;;7.00
69545;BMP180;56766;52.260;20.746;2022-10-31T02:12:56;100799.00;;;7.04
69545;BMP180;56766;52.260;20.746;2022-10-31T02:15:24;100801.20;;;7.00
69545;BMP180;56766;52.260;20.746;2022-10-31T02:17:52;100795.20;;;7.00
69545;BMP180;56766;52.260;20.746;2022-10-31T02:20:21;100800.40;;;7.00
69545;BMP180;56766;52.260;20.746;2022-10-31T02:23:33;100799.20;;;6.90
69545;BMP180;56766;52.260;20.746;2022-10-31T02:26:41;100798.80;;;6.90
69545;BMP180;56766;52.260;20.746;2022-10-31T02:29:20;100803.40;;;6.80
69545;BMP180;56766;52.260;20.746;2022-10-31T02:32:18;100803.20;;;6.80
69545;BMP180;56766;52.260;20.746;2022-10-31T02:35:03;100803.00;;;6.80
69545;BMP180;56766;52.260;20.746;2022-10-31T02:37:57;100797.80;;;6.78
69545;BMP180;56766;52.260;20.746;2022-10-31T02:40:48;100802.40;;;6.80
69545;BMP180;56766;52.260;20.746;2022-10-31T02:44:03;100802.00;;;6.80
69545;BMP180;56766;52.260;20.746;2022-10-31T02:49:50;100806.60;;;6.70
69545;BMP180;56766;52.260;20.746;2022-10-31T02:52:29;100813.60;;;6.68
69545;BMP180;56766;52.260;20.746;2022-10-31T02:54:57;100815.40;;;6.60
69545;BMP180;56766;52.260;20.746;2022-10-31T02:57:33;100815.20;;;6.60
69545;BMP180;56766;52.260;20.746;2022-10-31T03:00:06;100820.40;;;6.60
69545;BMP180;56766;52.260;20.746;2022-10-31T03:03:13;100818.00;;;6.60
69545;BMP180;56766;52.260;20.746;2022-10-31T03:06:07;100832.40;;;6.60
69545;BMP180;56766;52.260;20.746;2022-10-31T03:08:43;100831.00;;;6.60
69545;BMP180;56766;52.260;20.746;2022-10-31T03:11:24;100840.60;;;6.68
69545;BMP180;56766;52.260;20.746;2022-10-31T03:14:14;100848.20;;;6.70
69545;BMP180;56766;52.260;20.746;2022-10-31T03:16:54;100845.00;;;6.70
69545;BMP180;56766;52.260;20.746;2022-10-31T03:19:41;100841.00;;;6.78
69545;BMP180;56766;52.260;20.746;2022-10-31T03:22:21;100846.60;;;6.80
69545;BMP180;56766;52.260;20.746;2022-10-31T03:24:52;100850.00;;;6.84
69545;BMP180;56766;52.260;20.746;2022-10-31T03:27:29;100850.60;;;6.90
69545;BMP180;56766;52.260;20.746;2022-10-31T03:30:04;100852.80;;;6.90
69545;BMP180;56766;52.260;20.746;2022-10-31T03:32:51;100855.20;;;6.90
69545;BMP180;56766;52.260;20.746;2022-10-31T03:35:24;100848.80;;;7.00
69545;BMP180;56766;52.260;20.746;2022-10-31T03:37:55;100856.40;;;7.00
69545;BMP180;56766;52.260;20.746;2022-10-31T03:40:27;100857.60;;;7.10
69545;BMP180;56766;52.260;20.746;2022-10-31T03:43:09;100862.20;;;7.16
69545;BMP180;56766;52.260;20.746;2022-10-31T03:45:44;100860.80;;;7.20
69545;BMP180;56766;52.260;20.746;2022-10-31T03:48:15;100859.60;;;7.30
69545;BMP180;56766;52.260;20.746;2022-10-31T03:51:07;100857.80;;;7.40
69545;BMP180;56766;52.260;20.746;2022-10-31T03:54:09;100862.60;;;7.50
69545;BMP180;56766;52.260;20.746;2022-10-31T03:57:16;100863.60;;;7.60
69545;BMP180;56766;52.260;20.746;2022-10-31T03:59:53;100863.40;;;7.70
69545;BMP180;56766;52.260;20.746;2022-10-31T04:02:31;100864.60;;;7.80
69545;BMP180;56766;52.260;20.746;2022-10-31T04:05:01;100863.80;;;7.90
69545;BMP180;56766;52.260;20.746;2022-10-31T04:07:37;100861.20;;;7.90
69545;BMP180;56766;52.260;20.746;2022-10-31T04:10:11;100858.60;;;8.00
69545;BMP180;56766;52.260;20.746;2022-10-31T04:12:44;100856.00;;;8.00
69545;BMP180;56766;52.260;20.746;2022-10-31T04:15:13;100856.20;;;8.00
69545;BMP180;56766;52.260;20.746;2022-10-31T04:17:45;100856.40;;;8.00
69545;BMP180;56766;52.260;20.746;2022-10-31T04:20:17;100859.80;;;8.00
69545;BMP180;56766;52.260;20.746;2022-10-31T04:22:44;100852.80;;;8.00
69545;BMP180;56766;52.260;20.746;2022-10-31T04:25:11;100850.80;;;8.00
69545;BMP180;56766;52.260;20.746;2022-10-31T04:27:37;100856.60;;;8.00
69545;BMP180;56766;52.260;20.746;2022-10-31T04:30:04;100852.80;;;8.00
69545;BMP180;56766;52.260;20.746;2022-10-31T04:32:31;100857.20;;;7.92
69545;BMP180;56766;52.260;20.746;2022-10-31T04:34:58;100857.80;;;7.80
69545;BMP180;56766;52.260;20.746;2022-10-31T04:37:24;100856.80;;;7.80
69545;BMP180;56766;52.260;20.746;2022-10-31T04:39:51;100857.80;;;7.70
69545;BMP180;56766;52.260;20.746;2022-10-31T04:42:17;100861.60;;;7.70
69545;BMP180;56766;52.260;20.746;2022-10-31T04:44:44;100865.20;;;7.60
69545;BMP180;56766;52.260;20.746;2022-10-31T04:47:10;100863.60;;;7.50
69545;BMP180;56766;52.260;20.746;2022-10-31T04:49:37;100861.40;;;7.48
69545;BMP180;56766;52.260;20.746;2022-10-31T04:52:03;100866.00;;;7.40
69545;BMP180;56766;52.260;20.746;2022-10-31T04:54:30;100877.40;;;7.40
69545;BMP180;56766;52.260;20.746;2022-10-31T04:56:57;100876.20;;;7.30
69545;BMP180;56766;52.260;20.746;2022-10-31T04:59:23;100883.20;;;7.30
69545;BMP180;56766;52.260;20.746;2022-10-31T05:01:50;100877.00;;;7.30
69545;BMP180;56766;52.260;20.746;2022-10-31T05:04:16;100882.40;;;7.30
69545;BMP180;56766;52.260;20.746;2022-10-31T05:06:43;100875.20;;;7.40
69545;BMP180;56766;52.260;20.746;2022-10-31T05:09:09;100875.00;;;7.40
69545;BMP180;56766;52.260;20.746;2022-10-31T05:11:36;100876.20;;;7.32
69545;BMP180;56766;52.260;20.746;2022-10-31T05:14:02;100875.80;;;7.30
69545;BMP180;56766;52.260;20.746;2022-10-31T05:16:29;100878.60;;;7.30
69545;BMP180;56766;52.260;20.746;2022-10-31T05:18:56;100879.40;;;7.20
69545;BMP180;56766;52.260;20.746;2022-10-31T05:21:22;100883.00;;;7.20
69545;BMP180;56766;52.260;20.746;2022-10-31T05:23:49;100880.20;;;7.20
69545;BMP180;56766;52.260;20.746;2022-10-31T05:26:16;100874.40;;;7.20
69545;BMP180;56766;52.260;20.746;2022-10-31T05:28:42;100883.20;;;7.26
69545;BMP180;56766;52.260;20.746;2022-10-31T05:31:09;100877.80;;;7.28
69545;BMP180;56766;52.260;20.746;2022-10-31T05:33:35;100872.20;;;7.20
69545;BMP180;56766;52.260;20.746;2022-10-31T05:36:02;100883.40;;;7.20
69545;BMP180;56766;52.260;20.746;2022-10-31T05:38:29;100880.40;;;7.10
69545;BMP180;56766;52.260;20.746;2022-10-31T05:40:56;100884.00;;;7.02
69545;BMP180;56766;52.260;20.746;2022-10-31T05:43:29;100885.20;;;6.90
69545;BMP180;56766;52.260;20.746;2022-10-31T05:45:56;100886.20;;;6.86
69545;BMP180;56766;52.260;20.746;2022-10-31T05:48:22;100888.60;;;6.80
69545;BMP180;56766;52.260;20.746;2022-10-31T05:50:49;100891.60;;;6.80
69545;BMP180;56766;52.260;20.746;2022-10-31T05:53:16;100891.60;;;6.80
69545;BMP180;56766;52.260;20.746;2022-10-31T05:55:43;100887.20;;;6.80
69545;BMP180;56766;52.260;20.746;2022-10-31T05:58:11;100885.00;;;6.76
69545;BMP180;56766;52.260;20.746;2022-10-31T06:00:38;100888.20;;;6.80
69545;BMP180;56766;52.260;20.746;2022-10-31T06:03:08;100889.00;;;6.80
69545;BMP180;56766;52.260;20.746;2022-10-31T06:05:35;100890.60;;;6.90
69545;BMP180;56766;52.260;20.746;2022-10-31T06:08:02;100885.20;;;7.00
69545;BMP180;56766;52.260;20.746;2022-10-31T06:10:28;100895.80;;;7.00
69545;BMP180;56766;52.260;20.746;2022-10-31T06:12:55;100891.00;;;7.10
69545;BMP180;56766;52.260;20.746;2022-10-31T06:15:22;100894.00;;;7.14
69545;BMP180;56766;52.260;20.746;2022-10-31T06:18:02;100897.80;;;7.20
69545;BMP180;56766;52.260;20.746;2022-10-31T06:20:30;100899.40;;;7.30
69545;BMP180;56766;52.260;20.746;2022-10-31T06:22:57;100892.20;;;7.30
69545;BMP180;56766;52.260;20.746;2022-10-31T06:25:24;100889.40;;;7.36
69545;BMP180;56766;52.260;20.746;2022-10-31T06:27:51;100892.20;;;7.40
69545;BMP180;56766;52.260;20.746;2022-10-31T06:30:17;100886.20;;;7.40
69545;BMP180;56766;52.260;20.746;2022-10-31T06:32:44;100896.80;;;7.50
69545;BMP180;56766;52.260;20.746;2022-10-31T06:35:11;100897.80;;;7.52
69545;BMP180;56766;52.260;20.746;2022-10-31T06:37:38;100895.60;;;7.60
69545;BMP180;56766;52.260;20.746;2022-10-31T06:40:05;100902.00;;;7.66
69545;BMP180;56766;52.260;20.746;2022-10-31T06:42:32;100902.20;;;7.70
69545;BMP180;56766;52.260;20.746;2022-10-31T06:44:58;100904.40;;;7.70
69545;BMP180;56766;52.260;20.746;2022-10-31T06:47:25;100904.20;;;7.88
69545;BMP180;56766;52.260;20.746;2022-10-31T06:49:52;100909.40;;;8.00
69545;BMP180;56766;52.260;20.746;2022-10-31T06:52:18;100913.60;;;8.10
69545;BMP180;56766;52.260;20.746;2022-10-31T06:54:45;100916.60;;;8.24
69545;BMP180;56766;52.260;20.746;2022-10-31T06:57:11;100919.60;;;8.40
69545;BMP180;56766;52.260;20.746;2022-10-31T06:59:38;100919.40;;;8.60
69545;BMP180;56766;52.260;20.746;2022-10-31T07:02:07;100918.20;;;8.70
69545;BMP180;56766;52.260;20.746;2022-10-31T07:04:35;100913.60;;;8.90
69545;BMP180;56766;52.260;20.746;2022-10-31T07:07:01;100910.00;;;9.10
69545;BMP180;56766;52.260;20.746;2022-10-31T07:09:28;100916.20;;;9.30
69545;BMP180;56766;52.260;20.746;2022-10-31T07:11:54;100913.20;;;9.50
69545;BMP180;56766;52.260;20.746;2022-10-31T07:14:21;100914.80;;;9.70
69545;BMP180;56766;52.260;20.746;2022-10-31T07:16:50;100927.40;;;9.90
69545;BMP180;56766;52.260;20.746;2022-10-31T07:19:17;100922.80;;;10.04
69545;BMP180;56766;52.260;20.746;2022-10-31T07:21:44;100924.60;;;10.20
69545;BMP180;56766;52.260;20.746;2022-10-31T07:24:10;100924.00;;;10.40
69545;BMP180;56766;52.260;20.746;2022-10-31T07:26:37;100922.60;;;10.60
69545;BMP180;56766;52.260;20.746;2022-10-31T07:29:03;100927.80;;;10.80
69545;BMP180;56766;52.260;20.746;2022-10-31T07:31:30;100918.00;;;11.00
69545;BMP180;56766;52.260;20.746;2022-10-31T07:33:57;100919.40;;;11.18
69545;BMP180;56766;52.260;20.746;2022-10-31T07:36:23;100921.20;;;11.30
69545;BMP180;56766;52.260;20.746;2022-10-31T07:38:50;100923.20;;;11.50
69545;BMP180;56766;52.260;20.746;2022-10-31T07:41:16;100923.40;;;11.60
69545;BMP180;56766;52.260;20.746;2022-10-31T07:43:43;100924.40;;;11.80
69545;BMP180;56766;52.260;20.746;2022-10-31T07:46:10;100926.00;;;12.00
69545;BMP180;56766;52.260;20.746;2022-10-31T07:48:37;100932.60;;;12.10
69545;BMP180;56766;52.260;20.746;2022-10-31T07:51:04;100933.40;;;12.22
69545;BMP180;56766;52.260;20.746;2022-10-31T07:53:31;100934.40;;;12.40
69545;BMP180;56766;52.260;20.746;2022-10-31T07:55:57;100930.20;;;12.50
69545;BMP180;56766;52.260;20.746;2022-10-31T07:58:24;100934.60;;;12.68
69545;BMP180;56766;52.260;20.746;2022-10-31T08:00:51;100940.20;;;12.80
69545;BMP180;56766;52.260;20.746;2022-10-31T08:03:19;100935.60;;;12.90
69545;BMP180;56766;52.260;20.746;2022-10-31T08:05:46;100932.80;;;13.00
69545;BMP180;56766;52.260;20.746;2022-10-31T08:08:14;100937.80;;;13.20
69545;BMP180;56766;52.260;20.746;2022-10-31T08:10:41;100931.20;;;13.30
69545;BMP180;56766;52.260;20.746;2022-10-31T08:13:13;100932.60;;;13.46
69545;BMP180;56766;52.260;20.746;2022-10-31T08:15:41;100933.40;;;13.50
69545;BMP180;56766;52.260;20.746;2022-10-31T08:18:13;100932.80;;;13.60
69545;BMP180;56766;52.260;20.746;2022-10-31T08:20:42;100937.00;;;13.70
69545;BMP180;56766;52.260;20.746;2022-10-31T08:23:11;100940.20;;;13.80
69545;BMP180;56766;52.260;20.746;2022-10-31T08:25:39;100945.00;;;13.90
69545;BMP180;56766;52.260;20.746;2022-10-31T08:28:08;100947.00;;;13.96
69545;BMP180;56766;52.260;20.746;2022-10-31T08:30:37;100949.20;;;14.10
69545;BMP180;56766;52.260;20.746;2022-10-31T08:33:09;100954.40;;;14.20
69545;BMP180;56766;52.260;20.746;2022-10-31T08:35:36;100958.20;;;14.30
69545;BMP180;56766;52.260;20.746;2022-10-31T08:38:04;100959.60;;;14.40
69545;BMP180;56766;52.260;20.746;2022-10-31T08:40:32;100959.60;;;14.50
69545;BMP180;56766;52.260;20.746;2022-10-31T08:43:02;100960.60;;;14.50
69545;BMP180;56766;52.260;20.746;2022-10-31T08:45:32;100960.40;;;14.60
69545;BMP180;56766;52.260;20.746;2022-10-31T08:48:06;100963.00;;;14.68
69545;BMP180;56766;52.260;20.746;2022-10-31T08:50:35;100967.40;;;14.76
69545;BMP180;56766;52.260;20.746;2022-10-31T08:53:15;100965.20;;;14.80
69545;BMP180;56766;52.260;20.746;2022-10-31T08:55:44;100963.40;;;14.90
69545;BMP180;56766;52.260;20.746;2022-10-31T08:58:16;100960.80;;;14.90
69545;BMP180;56766;52.260;20.746;2022-10-31T09:00:46;100954.20;;;14.90
69545;BMP180;56766;52.260;20.746;2022-10-31T09:03:23;100961.20;;;15.00
69545;BMP180;56766;52.260;20.746;2022-10-31T09:05:59;100955.60;;;15.00
69545;BMP180;56766;52.260;20.746;2022-10-31T09:08:29;100958.60;;;15.06
69545;BMP180;56766;52.260;20.746;2022-10-31T09:10:57;100952.00;;;15.10
69545;BMP180;56766;52.260;20.746;2022-10-31T09:13:24;100948.60;;;15.20
69545;BMP180;56766;52.260;20.746;2022-10-31T09:15:51;100953.00;;;15.30
69545;BMP180;56766;52.260;20.746;2022-10-31T09:18:22;100947.80;;;15.40
69545;BMP180;56766;52.260;20.746;2022-10-31T09:20:50;100944.60;;;15.46
69545;BMP180;56766;52.260;20.746;2022-10-31T09:23:21;100949.40;;;15.50
69545;BMP180;56766;52.260;20.746;2022-10-31T09:25:51;100948.20;;;15.50
69545;BMP180;56766;52.260;20.746;2022-10-31T09:28:22;100950.60;;;15.60
69545;BMP180;56766;52.260;20.746;2022-10-31T09:30:52;100949.80;;;15.70
69545;BMP180;56766;52.260;20.746;2022-10-31T09:33:20;100950.40;;;15.80
69545;BMP180;56766;52.260;20.746;2022-10-31T09:35:48;100956.20;;;15.90
69545;BMP180;56766;52.260;20.746;2022-10-31T09:38:19;100950.80;;;15.90
69545;BMP180;56766;52.260;20.746;2022-10-31T09:44:39;100952.00;;;16.10
69545;BMP180;56766;52.260;20.746;2022-10-31T09:50:21;100954.60;;;16.20
69545;BMP180;56766;52.260;20.746;2022-10-31T09:53:28;100955.00;;;16.30
69545;BMP180;56766;52.260;20.746;2022-10-31T09:55:59;100955.00;;;16.30
69545;BMP180;56766;52.260;20.746;2022-10-31T09:58:30;100951.60;;;16.40
69545;BMP180;56766;52.260;20.746;2022-10-31T10:01:02;100948.40;;;16.40
69545;BMP180;56766;52.260;20.746;2022-10-31T10:03:47;100953.40;;;16.40
69545;BMP180;56766;52.260;20.746;2022-10-31T10:06:25;100952.20;;;16.50
69545;BMP180;56766;52.260;20.746;2022-10-31T10:08:55;100952.40;;;16.48
69545;BMP180;56766;52.260;20.746;2022-10-31T10:11:42;100951.00;;;16.50
69545;BMP180;56766;52.260;20.746;2022-10-31T10:17:37;100949.40;;;16.60
69545;BMP180;56766;52.260;20.746;2022-10-31T10:23:26;100953.40;;;16.70
69545;BMP180;56766;52.260;20.746;2022-10-31T10:26:52;100955.80;;;16.70
69545;BMP180;56766;52.260;20.746;2022-10-31T10:29:02;100950.60;;;16.80
69545;BMP180;56766;52.260;20.746;2022-10-31T10:31:41;100946.20;;;16.80
69545;BMP180;56766;52.260;20.746;2022-10-31T10:34:19;100941.40;;;16.80
69545;BMP180;56766;52.260;20.746;2022-10-31T10:37:23;100940.00;;;16.88
69545;BMP180;56766;52.260;20.746;2022-10-31T10:40:16;100949.40;;;16.90
69545;BMP180;56766;52.260;20.746;2022-10-31T10:43:12;100945.20;;;17.00
69545;BMP180;56766;52.260;20.746;2022-10-31T10:46:00;100940.60;;;17.10
69545;BMP180;56766;52.260;20.746;2022-10-31T10:49:29;100937.60;;;17.10
69545;BMP180;56766;52.260;20.746;2022-10-31T10:55:26;100938.40;;;17.14
69545;BMP180;56766;52.260;20.746;2022-10-31T10:58:08;100940.00;;;17.20
69545;BMP180;56766;52.260;20.746;2022-10-31T11:00:44;100938.00;;;17.30
69545;BMP180;56766;52.260;20.746;2022-10-31T11:03:15;100934.20;;;17.30
69545;BMP180;56766;52.260;20.746;2022-10-31T11:05:52;100937.60;;;17.30
69545;BMP180;56766;52.260;20.746;2022-10-31T11:08:35;100937.60;;;17.30
69545;BMP180;56766;52.260;20.746;2022-10-31T11:11:25;100943.00;;;17.30
69545;BMP180;56766;52.260;20.746;2022-10-31T11:14:05;100937.00;;;17.30
69545;BMP180;56766;52.260;20.746;2022-10-31T11:16:38;100942.20;;;17.30
69545;BMP180;56766;52.260;20.746;2022-10-31T11:21:39;100932.80;;;17.40
69545;BMP180;56766;52.260;20.746;2022-10-31T11:26:39;100943.60;;;17.42
69545;BMP180;56766;52.260;20.746;2022-10-31T11:29:25;100943.60;;;17.50
69545;BMP180;56766;52.260;20.746;2022-10-31T11:31:57;100944.60;;;17.50
69545;BMP180;56766;52.260;20.746;2022-10-31T11:34:35;100946.80;;;17.50
69545;BMP180;56766;52.260;20.746;2022-10-31T11:37:16;100944.80;;;17.50
69545;BMP180;56766;52.260;20.746;2022-10-31T11:39:53;100949.00;;;17.50
69545;BMP180;56766;52.260;20.746;2022-10-31T11:42:26;100941.00;;;17.50
69545;BMP180;56766;52.260;20.746;2022-10-31T11:44:55;100939.80;;;17.50
69545;BMP180;56766;52.260;20.746;2022-10-31T11:47:31;100941.40;;;17.50
69545;BMP180;56766;52.260;20.746;2022-10-31T11:50:18;100938.60;;;17.50
69545;BMP180;56766;52.260;20.746;2022-10-31T11:52:48;100934.80;;;17.40
69545;BMP180;56766;52.260;20.746;2022-10-31T11:55:33;100939.80;;;17.30
69545;BMP180;56766;52.260;20.746;2022-10-31T11:58:01;100934.80;;;17.38
69545;BMP180;56766;52.260;20.746;2022-10-31T12:00:31;100930.60;;;17.32
69545;BMP180;56766;52.260;20.746;2022-10-31T12:06:07;100933.40;;;17.30
69545;BMP180;56766;52.260;20.746;2022-10-31T12:08:40;100927.60;;;17.30
69545;BMP180;56766;52.260;20.746;2022-10-31T12:14:16;100925.80;;;17.30
69545;BMP180;56766;52.260;20.746;2022-10-31T12:17:22;100932.80;;;17.30
69545;BMP180;56766;52.260;20.746;2022-10-31T12:23:33;100934.40;;;17.30
69545;BMP180;56766;52.260;20.746;2022-10-31T12:29:56;100926.60;;;17.32
69545;BMP180;56766;52.260;20.746;2022-10-31T12:35:39;100930.00;;;17.20
69545;BMP180;56766;52.260;20.746;2022-10-31T12:45:00;100933.40;;;17.20
69545;BMP180;56766;52.260;20.746;2022-10-31T12:48:14;100929.20;;;17.20
69545;BMP180;56766;52.260;20.746;2022-10-31T12:51:04;100928.40;;;17.10
69545;BMP180;56766;52.260;20.746;2022-10-31T12:57:04;100930.40;;;16.90
69545;BMP180;56766;52.260;20.746;2022-10-31T12:59:44;100939.20;;;16.70
69545;BMP180;56766;52.260;20.746;2022-10-31T13:02:26;100940.80;;;16.60
69545;BMP180;56766;52.260;20.746;2022-10-31T13:05:10;100938.60;;;16.50
69545;BMP180;56766;52.260;20.746;2022-10-31T13:16:29;100942.60;;;16.26
69545;BMP180;56766;52.260;20.746;2022-10-31T13:19:10;100944.20;;;16.20
69545;BMP180;56766;52.260;20.746;2022-10-31T13:22:08;100945.00;;;16.10
69545;BMP180;56766;52.260;20.746;2022-10-31T13:30:18;100949.00;;;15.90
69545;BMP180;56766;52.260;20.746;2022-10-31T13:45:22;100949.40;;;15.80
69545;BMP180;56766;52.260;20.746;2022-10-31T13:50:54;100943.00;;;15.70
69545;BMP180;56766;52.260;20.746;2022-10-31T13:53:41;100942.40;;;15.60
69545;BMP180;56766;52.260;20.746;2022-10-31T13:58:36;100941.60;;;15.50
69545;BMP180;56766;52.260;20.746;2022-10-31T14:01:16;100942.00;;;15.50
69545;BMP180;56766;52.260;20.746;2022-10-31T14:06:42;100934.20;;;15.30
69545;BMP180;56766;52.260;20.746;2022-10-31T14:09:31;100937.00;;;15.20
69545;BMP180;56766;52.260;20.746;2022-10-31T14:12:07;100938.20;;;15.08
69545;BMP180;56766;52.260;20.746;2022-10-31T14:14:46;100935.80;;;15.00
69545;BMP180;56766;52.260;20.746;2022-10-31T14:17:21;100939.40;;;14.90
69545;BMP180;56766;52.260;20.746;2022-10-31T14:22:40;100941.60;;;14.70
69545;BMP180;56766;52.260;20.746;2022-10-31T14:25:36;100947.60;;;14.70
69545;BMP180;56766;52.260;20.746;2022-10-31T14:28:34;100945.40;;;14.64
69545;BMP180;56766;52.260;20.746;2022-10-31T14:31:01;100947.00;;;14.60
69545;BMP180;56766;52.260;20.746;2022-10-31T14:33:31;100951.60;;;14.60
69545;BMP180;56766;52.260;20.746;2022-10-31T14:36:10;100938.40;;;14.50
69545;BMP180;56766;52.260;20.746;2022-10-31T14:51:03;100937.40;;;14.30
69545;BMP180;56766;52.260;20.746;2022-10-31T14:53:49;100935.20;;;14.22
69545;BMP180;56766;52.260;20.746;2022-10-31T14:56:43;100941.20;;;14.20
69545;BMP180;56766;52.260;20.746;2022-10-31T14:59:18;100939.40;;;14.20
69545;BMP180;56766;52.260;20.746;2022-10-31T15:01:59;100941.80;;;14.22
69545;BMP180;56766;52.260;20.746;2022-10-31T15:04:31;100935.80;;;14.20
69545;BMP180;56766;52.260;20.746;2022-10-31T15:07:16;100938.20;;;14.20
69545;BMP180;56766;52.260;20.746;2022-10-31T15:09:44;100940.60;;;14.18
69545;BMP180;56766;52.260;20.746;2022-10-31T15:12:24;100939.00;;;14.10
69545;BMP180;56766;52.260;20.746;2022-10-31T15:14:52;100937.60;;;14.10
69545;BMP180;56766;52.260;20.746;2022-10-31T15:17:21;100938.20;;;14.10
69545;BMP180;56766;52.260;20.746;2022-10-31T15:19:50;100938.40;;;14.08
69545;BMP180;56766;52.260;20.746;2022-10-31T15:22:23;100940.60;;;14.00
69545;BMP180;56766;52.260;20.746;2022-10-31T15:24:50;100936.00;;;14.00
69545;BMP180;56766;52.260;20.746;2022-10-31T15:27:24;100935.60;;;14.00
69545;BMP180;56766;52.260;20.746;2022-10-31T15:29:56;100938.60;;;14.00
69545;BMP180;56766;52.260;20.746;2022-10-31T15:32:28;100935.80;;;14.00
69545;BMP180;56766;52.260;20.746;2022-10-31T15:34:56;100930.80;;;13.94
69545;BMP180;56766;52.260;20.746;2022-10-31T15:37:26;100940.60;;;13.90
69545;BMP180;56766;52.260;20.746;2022-10-31T15:39:53;100936.40;;;13.90
69545;BMP180;56766;52.260;20.746;2022-10-31T15:42:32;100938.20;;;13.90
69545;BMP180;56766;52.260;20.746;2022-10-31T15:47:32;100944.20;;;13.90
69545;BMP180;56766;52.260;20.746;2022-10-31T15:50:02;100947.00;;;13.90
69545;BMP180;56766;52.260;20.746;2022-10-31T15:52:39;100948.60;;;13.90
69545;BMP180;56766;52.260;20.746;2022-10-31T15:57:48;100953.80;;;13.90
69545;BMP180;56766;52.260;20.746;2022-10-31T16:00:33;100949.00;;;13.88
69545;BMP180;56766;52.260;20.746;2022-10-31T16:03:05;100949.80;;;13.80
69545;BMP180;56766;52.260;20.746;2022-10-31T16:13:56;100950.40;;;13.90
69545;BMP180;56766;52.260;20.746;2022-10-31T16:16:26;100943.00;;;13.90
69545;BMP180;56766;52.260;20.746;2022-10-31T16:18:55;100939.60;;;13.90
69545;BMP180;56766;52.260;20.746;2022-10-31T16:21:32;100943.60;;;13.90
69545;BMP180;56766;52.260;20.746;2022-10-31T16:24:19;100947.60;;;13.90
69545;BMP180;56766;52.260;20.746;2022-10-31T16:27:05;100950.00;;;13.90
69545;BMP180;56766;52.260;20.746;2022-10-31T16:29:45;100952.20;;;13.90
69545;BMP180;56766;52.260;20.746;2022-10-31T16:32:27;100947.40;;;13.90
69545;BMP180;56766;52.260;20.746;2022-10-31T16:35:17;100945.20;;;13.90
69545;BMP180;56766;52.260;20.746;2022-10-31T16:37:44;100946.00;;;13.90